createdAt,value
2019-03-18T00:00:53.660Z,2.40
2019-03-18T00:01:53.649Z,2.30
2019-03-18T00:02:53.644Z,2.30
2019-03-18T00:03:53.647Z,2.50
2019-03-18T00:04:53.614Z,2.40
2019-03-18T00:05:53.604Z,2.60
2019-03-18T00:06:53.597Z,2.40
2019-03-18T00:07:53.584Z,2.10
2019-03-18T00:08:53.588Z,2.40
2019-03-18T00:09:53.567Z,2.40
2019-03-18T00:10:53.550Z,2.30
2019-03-18T00:11:53.538Z,2.30
2019-03-18T00:12:53.524Z,2.50
2019-03-18T00:13:53.535Z,2.20
2019-03-18T00:15:01.038Z,2.70
2019-03-18T00:15:54.495Z,2.30
2019-03-18T00:16:53.484Z,2.40
2019-03-18T00:17:53.470Z,2.60
2019-03-18T00:18:53.490Z,2.30
2019-03-18T00:19:53.449Z,2.60
2019-03-18T00:20:53.434Z,2.40
2019-03-18T00:21:53.427Z,2.50
2019-03-18T00:22:53.422Z,2.40
2019-03-18T00:23:53.422Z,2.20
2019-03-18T00:24:53.400Z,2.40
2019-03-18T00:25:53.396Z,2.60
2019-03-18T00:26:53.369Z,2.20
2019-03-18T00:27:53.359Z,2.40
2019-03-18T00:28:53.375Z,2.80
2019-03-18T00:29:53.335Z,2.50
2019-03-18T00:30:53.328Z,2.60
2019-03-18T00:31:53.317Z,2.60
2019-03-18T00:32:53.308Z,2.40
2019-03-18T00:33:53.310Z,2.20
2019-03-18T00:34:53.285Z,2.50
2019-03-18T00:35:53.278Z,2.60
2019-03-18T00:36:53.321Z,2.30
2019-03-18T00:37:53.248Z,2.50
2019-03-18T00:38:53.270Z,2.60
2019-03-18T00:39:53.228Z,2.80
2019-03-18T00:40:53.210Z,2.80
2019-03-18T00:41:53.206Z,3.10
2019-03-18T00:42:53.188Z,2.70
2019-03-18T00:43:53.204Z,2.60
2019-03-18T00:44:53.166Z,2.40
2019-03-18T00:45:53.155Z,2.90
2019-03-18T00:46:53.152Z,2.70
2019-03-18T00:47:53.141Z,2.60
2019-03-18T00:48:53.149Z,2.70
2019-03-18T00:49:53.111Z,2.60
2019-03-18T00:50:53.098Z,2.60
2019-03-18T00:51:53.085Z,2.80
2019-03-18T00:52:53.078Z,2.90
2019-03-18T00:53:53.094Z,3.20
2019-03-18T00:54:53.066Z,2.90
2019-03-18T00:55:53.047Z,2.90
2019-03-18T00:56:53.032Z,3.00
2019-03-18T00:57:53.042Z,3.00
2019-03-18T00:58:53.037Z,2.90
2019-03-18T00:59:53.002Z,3.10
2019-03-18T01:00:52.987Z,3.10
2019-03-18T01:01:52.975Z,3.00
2019-03-18T01:02:52.973Z,3.30
2019-03-18T01:03:52.976Z,2.80
2019-03-18T01:04:52.966Z,2.90
2019-03-18T01:05:52.937Z,3.10
2019-03-18T01:06:52.926Z,3.10
2019-03-18T01:07:52.909Z,3.20
2019-03-18T01:08:52.910Z,3.30
2019-03-18T01:09:52.909Z,3.00
2019-03-18T01:10:52.880Z,2.90
2019-03-18T01:11:52.873Z,2.90
2019-03-18T01:12:52.851Z,3.60
2019-03-18T01:13:52.842Z,3.20
2019-03-18T01:14:52.848Z,3.10
2019-03-18T01:15:52.824Z,3.00
2019-03-18T01:16:52.845Z,3.40
2019-03-18T01:17:52.796Z,3.20
2019-03-18T01:18:52.788Z,3.10
2019-03-18T01:19:52.815Z,3.40
2019-03-18T01:20:52.770Z,3.00
2019-03-18T01:21:52.756Z,3.10
2019-03-18T01:22:52.743Z,3.10
2019-03-18T01:23:52.728Z,3.10
2019-03-18T01:24:52.736Z,3.40
2019-03-18T01:25:52.710Z,2.90
2019-03-18T01:26:52.718Z,3.70
2019-03-18T01:27:52.685Z,2.90
2019-03-18T01:28:52.682Z,3.00
2019-03-18T01:29:52.687Z,3.10
2019-03-18T01:30:52.654Z,3.40
2019-03-18T01:31:52.642Z,3.20
2019-03-18T01:32:52.708Z,3.20
2019-03-18T01:33:52.624Z,3.10
2019-03-18T01:34:52.631Z,3.30
2019-03-18T01:35:52.602Z,3.60
2019-03-18T01:36:52.587Z,3.20
2019-03-18T01:37:52.642Z,3.10
2019-03-18T01:38:52.564Z,3.00
2019-03-18T01:39:52.568Z,2.90
2019-03-18T01:40:52.542Z,3.10
2019-03-18T01:41:52.530Z,3.10
2019-03-18T01:42:52.524Z,3.10
2019-03-18T01:43:52.507Z,3.40
2019-03-18T01:44:52.518Z,3.10
2019-03-18T01:45:52.499Z,3.00
2019-03-18T01:46:52.471Z,3.30
2019-03-18T01:47:52.461Z,3.30
2019-03-18T01:48:52.451Z,3.30
2019-03-18T01:49:52.470Z,3.40
2019-03-18T01:50:52.430Z,3.00
2019-03-18T01:51:52.416Z,3.20
2019-03-18T01:52:52.405Z,2.90
2019-03-18T01:53:52.393Z,3.30
2019-03-18T01:54:52.402Z,3.00
2019-03-18T01:55:52.373Z,3.10
2019-03-18T01:56:52.369Z,3.10
2019-03-18T01:57:52.347Z,2.80
2019-03-18T01:58:52.337Z,2.80
2019-03-18T01:59:52.352Z,3.00
2019-03-18T02:00:52.318Z,3.20
2019-03-18T02:01:52.314Z,3.10
2019-03-18T02:02:52.296Z,3.30
2019-03-18T02:03:52.285Z,2.70
2019-03-18T02:04:52.292Z,3.10
2019-03-18T02:05:52.280Z,3.30
2019-03-18T02:06:52.253Z,3.50
2019-03-18T02:07:52.245Z,3.20
2019-03-18T02:08:52.228Z,3.10
2019-03-18T02:09:52.242Z,3.20
2019-03-18T02:10:52.205Z,3.50
2019-03-18T02:11:52.195Z,3.40
2019-03-18T02:12:52.188Z,3.50
2019-03-18T02:13:52.176Z,3.10
2019-03-18T02:14:52.176Z,3.40
2019-03-18T02:15:53.697Z,3.50
2019-03-18T02:16:52.143Z,3.20
2019-03-18T02:17:52.124Z,3.10
2019-03-18T02:18:52.112Z,3.40
2019-03-18T02:19:52.122Z,3.60
2019-03-18T02:20:52.090Z,3.60
2019-03-18T02:21:52.087Z,3.50
2019-03-18T02:22:52.071Z,3.40
2019-03-18T02:23:52.059Z,3.70
2019-03-18T02:24:52.060Z,3.60
2019-03-18T02:25:52.037Z,3.20
2019-03-18T02:26:52.034Z,3.80
2019-03-18T02:27:52.013Z,3.60
2019-03-18T02:28:52.003Z,3.60
2019-03-18T02:29:52.016Z,3.30
2019-03-18T02:30:52.016Z,3.70
2019-03-18T02:31:52.005Z,3.50
2019-03-18T02:32:51.961Z,3.60
2019-03-18T02:33:51.947Z,3.60
2019-03-18T02:34:51.940Z,4.00
2019-03-18T02:35:51.950Z,3.30
2019-03-18T02:36:51.920Z,3.70
2019-03-18T02:37:51.907Z,3.50
2019-03-18T02:38:51.904Z,3.30
2019-03-18T02:39:51.881Z,3.20
2019-03-18T02:40:51.897Z,3.90
2019-03-18T02:41:51.874Z,3.60
2019-03-18T02:42:51.853Z,4.00
2019-03-18T02:43:51.847Z,3.80
2019-03-18T02:44:51.832Z,3.60
2019-03-18T02:45:51.830Z,3.90
2019-03-18T02:46:51.808Z,3.60
2019-03-18T02:47:51.790Z,3.70
2019-03-18T02:48:51.779Z,3.80
2019-03-18T02:49:51.772Z,3.70
2019-03-18T02:50:51.770Z,3.90
2019-03-18T02:51:53.189Z,3.60
2019-03-18T02:52:51.735Z,3.90
2019-03-18T02:53:51.723Z,3.60
2019-03-18T02:54:51.716Z,3.80
2019-03-18T02:55:51.721Z,3.60
2019-03-18T02:56:51.691Z,3.80
2019-03-18T02:57:51.678Z,4.00
2019-03-18T02:58:51.678Z,3.70
2019-03-18T02:59:51.666Z,3.50
2019-03-18T03:00:51.667Z,3.30
2019-03-18T03:01:51.639Z,4.40
2019-03-18T03:02:51.633Z,3.30
2019-03-18T03:03:51.610Z,3.40
2019-03-18T03:04:51.603Z,3.50
2019-03-18T03:05:51.606Z,3.40
2019-03-18T03:06:51.587Z,3.30
2019-03-18T03:07:51.578Z,3.80
2019-03-18T03:08:51.560Z,3.60
2019-03-18T03:09:51.551Z,3.60
2019-03-18T03:10:51.568Z,3.70
2019-03-18T03:11:51.523Z,3.70
2019-03-18T03:12:51.511Z,4.10
2019-03-18T03:13:51.503Z,3.50
2019-03-18T03:14:51.492Z,3.50
2019-03-18T03:15:51.498Z,4.00
2019-03-18T03:16:51.471Z,3.50
2019-03-18T03:17:51.462Z,3.80
2019-03-18T03:18:51.451Z,3.40
2019-03-18T03:19:51.435Z,3.80
2019-03-18T03:20:51.446Z,3.50
2019-03-18T03:21:51.411Z,3.60
2019-03-18T03:22:51.403Z,3.60
2019-03-18T03:23:51.405Z,4.10
2019-03-18T03:24:51.376Z,3.60
2019-03-18T03:25:51.409Z,3.40
2019-03-18T03:26:51.376Z,3.30
2019-03-18T03:27:51.349Z,3.80
2019-03-18T03:28:51.345Z,3.90
2019-03-18T03:29:51.328Z,3.50
2019-03-18T03:30:51.361Z,3.90
2019-03-18T03:31:51.319Z,3.80
2019-03-18T03:32:51.477Z,3.80
2019-03-18T03:33:51.496Z,3.70
2019-03-18T03:34:51.287Z,3.70
2019-03-18T03:35:51.291Z,3.80
2019-03-18T03:36:51.241Z,3.40
2019-03-18T03:37:51.236Z,3.90
2019-03-18T03:38:51.237Z,3.80
2019-03-18T03:39:51.221Z,3.80
2019-03-18T03:40:51.228Z,3.70
2019-03-18T03:41:51.207Z,3.90
2019-03-18T03:42:51.177Z,3.80
2019-03-18T03:43:51.171Z,4.40
2019-03-18T03:44:51.157Z,4.00
2019-03-18T03:45:51.189Z,3.90
2019-03-18T03:46:51.163Z,4.30
2019-03-18T03:47:51.255Z,4.10
2019-03-18T03:48:51.121Z,3.90
2019-03-18T03:49:51.108Z,3.80
2019-03-18T03:50:51.110Z,3.70
2019-03-18T03:51:51.089Z,4.30
2019-03-18T03:52:51.065Z,3.70
2019-03-18T03:53:51.058Z,4.10
2019-03-18T03:54:51.047Z,4.00
2019-03-18T03:55:51.059Z,3.80
2019-03-18T03:56:51.039Z,3.80
2019-03-18T03:57:51.032Z,4.10
2019-03-18T03:58:51.011Z,3.80
2019-03-18T03:59:50.984Z,4.20
2019-03-18T04:00:51.073Z,3.90
2019-03-18T04:01:50.987Z,4.10
2019-03-18T04:02:50.979Z,4.40
2019-03-18T04:03:50.968Z,3.80
2019-03-18T04:04:50.938Z,4.20
2019-03-18T04:05:50.945Z,4.20
2019-03-18T04:06:50.921Z,4.00
2019-03-18T04:07:50.898Z,4.00
2019-03-18T04:08:50.893Z,3.90
2019-03-18T04:09:51.524Z,4.30
2019-03-18T04:10:50.868Z,4.20
2019-03-18T04:11:50.882Z,4.50
2019-03-18T04:12:50.845Z,4.40
2019-03-18T04:13:50.886Z,4.10
2019-03-18T04:14:50.836Z,4.30
2019-03-18T04:15:50.828Z,4.30
2019-03-18T04:17:01.806Z,4.40
2019-03-18T04:17:51.792Z,4.00
2019-03-18T04:18:50.779Z,4.20
2019-03-18T04:19:50.782Z,4.50
2019-03-18T04:20:50.774Z,4.40
2019-03-18T04:21:51.173Z,4.60
2019-03-18T04:22:50.744Z,4.40
2019-03-18T04:23:50.738Z,4.40
2019-03-18T04:24:50.728Z,4.20
2019-03-18T04:25:50.698Z,4.60
2019-03-18T04:26:50.725Z,4.20
2019-03-18T04:27:50.742Z,4.70
2019-03-18T04:28:50.672Z,4.70
2019-03-18T04:29:50.659Z,4.40
2019-03-18T04:30:50.659Z,4.20
2019-03-18T04:31:50.674Z,4.70
2019-03-18T04:32:50.630Z,4.40
2019-03-18T04:33:50.606Z,4.30
2019-03-18T04:34:50.604Z,4.70
2019-03-18T04:35:50.586Z,4.60
2019-03-18T04:36:50.610Z,5.70
2019-03-18T04:37:50.574Z,4.40
2019-03-18T04:38:50.565Z,4.30
2019-03-18T04:39:50.544Z,4.70
2019-03-18T04:40:50.529Z,4.30
2019-03-18T04:41:50.548Z,4.50
2019-03-18T04:42:50.503Z,4.40
2019-03-18T04:43:50.492Z,4.60
2019-03-18T04:44:50.479Z,4.30
2019-03-18T04:45:50.475Z,4.50
2019-03-18T04:46:50.498Z,4.30
2019-03-18T04:47:50.462Z,4.30
2019-03-18T04:48:50.457Z,4.30
2019-03-18T04:49:50.438Z,4.50
2019-03-18T04:50:50.423Z,5.10
2019-03-18T04:51:50.445Z,4.40
2019-03-18T04:52:50.418Z,4.10
2019-03-18T04:53:50.390Z,4.30
2019-03-18T04:54:50.397Z,4.40
2019-03-18T04:55:50.372Z,5.00
2019-03-18T04:56:50.376Z,4.50
2019-03-18T04:57:50.335Z,4.00
2019-03-18T04:58:50.339Z,4.20
2019-03-18T04:59:50.330Z,4.80
2019-03-18T05:00:50.304Z,4.20
2019-03-18T05:01:50.346Z,4.40
2019-03-18T05:02:50.281Z,4.30
2019-03-18T05:03:50.276Z,4.40
2019-03-18T05:04:50.275Z,4.00
2019-03-18T05:05:50.262Z,4.50
2019-03-18T05:06:50.330Z,4.10
2019-03-18T05:07:50.260Z,4.70
2019-03-18T05:08:50.209Z,4.20
2019-03-18T05:09:50.212Z,4.10
2019-03-18T05:10:50.214Z,4.00
2019-03-18T05:11:50.204Z,4.50
2019-03-18T05:12:50.168Z,4.10
2019-03-18T05:13:50.213Z,4.20
2019-03-18T05:14:50.161Z,4.30
2019-03-18T05:15:50.140Z,4.00
2019-03-18T05:16:50.146Z,4.20
2019-03-18T05:17:50.136Z,3.80
2019-03-18T05:18:50.102Z,4.50
2019-03-18T05:19:50.096Z,4.40
2019-03-18T05:20:50.100Z,3.90
2019-03-18T05:21:50.090Z,3.90
2019-03-18T05:22:50.100Z,3.90
2019-03-18T05:23:50.069Z,4.00
2019-03-18T05:24:50.058Z,3.80
2019-03-18T05:25:50.029Z,4.00
2019-03-18T05:26:50.052Z,3.80
2019-03-18T05:27:50.032Z,3.90
2019-03-18T05:28:50.014Z,3.90
2019-03-18T05:29:49.988Z,3.90
2019-03-18T05:30:49.983Z,3.90
2019-03-18T05:31:49.966Z,4.20
2019-03-18T05:32:49.965Z,3.80
2019-03-18T05:33:50.065Z,3.70
2019-03-18T05:34:49.936Z,3.90
2019-03-18T05:35:49.920Z,3.80
2019-03-18T05:36:49.901Z,3.90
2019-03-18T05:37:49.910Z,3.50
2019-03-18T05:38:49.927Z,3.50
2019-03-18T05:39:49.893Z,3.70
2019-03-18T05:40:49.864Z,3.30
2019-03-18T05:41:49.909Z,3.80
2019-03-18T05:42:49.872Z,3.10
2019-03-18T05:43:49.835Z,3.70
2019-03-18T05:44:49.821Z,3.90
2019-03-18T05:45:49.816Z,3.50
2019-03-18T05:46:49.802Z,3.90
2019-03-18T05:47:49.858Z,3.80
2019-03-18T05:48:49.776Z,3.70
2019-03-18T05:49:49.768Z,3.40
2019-03-18T05:50:49.758Z,3.50
2019-03-18T05:51:49.752Z,3.20
2019-03-18T05:52:49.764Z,3.60
2019-03-18T05:53:49.712Z,3.30
2019-03-18T05:54:49.707Z,3.20
2019-03-18T05:55:49.695Z,3.30
2019-03-18T05:56:49.692Z,3.50
2019-03-18T05:57:49.698Z,3.40
2019-03-18T05:58:49.653Z,3.70
2019-03-18T05:59:49.644Z,3.60
2019-03-18T06:00:49.720Z,3.80
2019-03-18T06:01:49.641Z,3.30
2019-03-18T06:02:49.640Z,3.70
2019-03-18T06:03:49.613Z,3.70
2019-03-18T06:04:49.596Z,3.40
2019-03-18T06:05:49.589Z,4.30
2019-03-18T06:06:49.576Z,3.60
2019-03-18T06:07:49.602Z,3.50
2019-03-18T06:08:49.546Z,3.50
2019-03-18T06:09:49.531Z,3.60
2019-03-18T06:10:49.527Z,3.20
2019-03-18T06:11:49.523Z,3.40
2019-03-18T06:12:49.523Z,3.80
2019-03-18T06:13:49.503Z,3.40
2019-03-18T06:14:49.480Z,3.60
2019-03-18T06:15:49.465Z,3.50
2019-03-18T06:16:49.463Z,3.50
2019-03-18T06:17:52.805Z,3.30
2019-03-18T06:18:49.440Z,3.50
2019-03-18T06:19:49.451Z,3.30
2019-03-18T06:20:49.442Z,3.40
2019-03-18T06:21:49.397Z,3.70
2019-03-18T06:22:49.405Z,3.30
2019-03-18T06:23:49.380Z,3.70
2019-03-18T06:24:49.385Z,3.60
2019-03-18T06:25:49.391Z,3.60
2019-03-18T06:26:49.359Z,3.90
2019-03-18T06:27:49.432Z,4.30
2019-03-18T06:28:49.352Z,4.00
2019-03-18T06:29:49.327Z,4.10
2019-03-18T06:30:49.330Z,4.20
2019-03-18T06:31:49.319Z,4.50
2019-03-18T06:32:49.401Z,4.10
2019-03-18T06:33:49.278Z,4.00
2019-03-18T06:34:49.263Z,3.80
2019-03-18T06:35:49.258Z,4.70
2019-03-18T06:36:49.262Z,4.40
2019-03-18T06:37:49.269Z,4.00
2019-03-18T06:38:49.207Z,4.10
2019-03-18T06:39:49.220Z,4.00
2019-03-18T06:40:49.213Z,4.40
2019-03-18T06:41:49.196Z,3.90
2019-03-18T06:42:49.307Z,4.00
2019-03-18T06:43:49.180Z,4.40
2019-03-18T06:44:49.140Z,3.70
2019-03-18T06:45:49.158Z,4.20
2019-03-18T06:46:49.137Z,3.90
2019-03-18T06:47:49.168Z,4.10
2019-03-18T06:48:49.141Z,4.20
2019-03-18T06:49:49.127Z,4.40
2019-03-18T06:50:49.089Z,4.20
2019-03-18T06:51:49.072Z,4.10
2019-03-18T06:52:49.070Z,3.90
2019-03-18T06:53:49.073Z,4.30
2019-03-18T06:54:49.078Z,4.30
2019-03-18T06:55:49.071Z,3.90
2019-03-18T06:56:49.028Z,4.00
2019-03-18T06:57:49.005Z,3.80
2019-03-18T06:58:49.037Z,4.20
2019-03-18T06:59:49.008Z,3.70
2019-03-18T07:00:48.973Z,4.00
2019-03-18T07:01:48.964Z,4.10
2019-03-18T07:02:48.947Z,3.80
2019-03-18T07:03:48.974Z,3.90
2019-03-18T07:04:48.943Z,4.00
2019-03-18T07:05:49.009Z,3.90
2019-03-18T07:06:48.905Z,4.30
2019-03-18T07:07:48.894Z,4.10
2019-03-18T07:08:48.957Z,3.80
2019-03-18T07:09:48.889Z,4.10
2019-03-18T07:10:48.884Z,3.70
2019-03-18T07:11:48.935Z,4.30
2019-03-18T07:12:48.841Z,3.90
2019-03-18T07:13:48.840Z,4.10
2019-03-18T07:14:48.804Z,4.00
2019-03-18T07:15:48.818Z,4.00
2019-03-18T07:16:48.817Z,4.10
2019-03-18T07:17:48.772Z,3.40
2019-03-18T07:18:48.790Z,4.00
2019-03-18T07:19:48.766Z,4.30
2019-03-18T07:20:48.747Z,3.90
2019-03-18T07:21:48.753Z,3.70
2019-03-18T07:22:48.742Z,3.90
2019-03-18T07:23:48.810Z,3.80
2019-03-18T07:24:48.705Z,3.80
2019-03-18T07:25:48.690Z,4.20
2019-03-18T07:26:48.685Z,3.80
2019-03-18T07:27:48.684Z,3.70
2019-03-18T07:28:48.707Z,3.90
2019-03-18T07:29:48.647Z,3.90
2019-03-18T07:30:48.635Z,3.90
2019-03-18T07:31:48.632Z,3.50
2019-03-18T07:32:48.627Z,3.40
2019-03-18T07:33:48.630Z,3.60
2019-03-18T07:34:48.581Z,3.80
2019-03-18T07:35:48.601Z,3.50
2019-03-18T07:36:48.566Z,3.40
2019-03-18T07:37:48.558Z,3.60
2019-03-18T07:38:48.569Z,3.90
2019-03-18T07:39:48.550Z,3.30
2019-03-18T07:40:48.524Z,3.80
2019-03-18T07:41:48.501Z,3.70
2019-03-18T07:42:48.498Z,3.60
2019-03-18T07:43:48.508Z,3.50
2019-03-18T07:44:48.494Z,3.30
2019-03-18T07:45:48.470Z,3.60
2019-03-18T07:46:48.531Z,3.40
2019-03-18T07:47:48.440Z,3.70
2019-03-18T07:48:48.473Z,3.50
2019-03-18T07:49:48.432Z,4.10
2019-03-18T07:50:48.430Z,3.40
2019-03-18T07:51:48.404Z,3.50
2019-03-18T07:52:48.392Z,3.60
2019-03-18T07:53:48.368Z,3.20
2019-03-18T07:54:48.375Z,3.50
2019-03-18T07:55:48.370Z,3.80
2019-03-18T07:56:48.334Z,3.40
2019-03-18T07:57:48.324Z,3.50
2019-03-18T07:58:48.314Z,3.20
2019-03-18T07:59:48.324Z,3.50
2019-03-18T08:00:48.323Z,3.50
2019-03-18T08:01:48.290Z,3.40
2019-03-18T08:02:48.292Z,3.60
2019-03-18T08:03:48.256Z,3.30
2019-03-18T08:04:48.260Z,3.30
2019-03-18T08:05:48.239Z,3.10
2019-03-18T08:06:48.228Z,3.70
2019-03-18T08:07:48.208Z,3.20
2019-03-18T08:08:48.192Z,3.50
2019-03-18T08:09:48.198Z,3.40
2019-03-18T08:10:48.172Z,3.40
2019-03-18T08:11:48.157Z,3.40
2019-03-18T08:12:48.148Z,3.40
2019-03-18T08:13:48.142Z,3.60
2019-03-18T08:14:48.146Z,3.40
2019-03-18T08:15:48.110Z,3.40
2019-03-18T08:16:48.107Z,3.60
2019-03-18T08:17:48.091Z,3.00
2019-03-18T08:18:48.078Z,3.40
2019-03-18T08:19:48.088Z,3.30
2019-03-18T08:20:48.061Z,3.20
2019-03-18T08:21:48.064Z,3.80
2019-03-18T08:22:48.038Z,3.40
2019-03-18T08:23:48.029Z,3.40
2019-03-18T08:24:48.044Z,3.30
2019-03-18T08:25:48.001Z,3.10
2019-03-18T08:26:48.083Z,3.60
2019-03-18T08:27:47.987Z,3.10
2019-03-18T08:28:47.972Z,3.20
2019-03-18T08:29:47.985Z,3.70
2019-03-18T08:30:47.982Z,2.90
2019-03-18T08:31:47.936Z,3.30
2019-03-18T08:32:47.928Z,3.40
2019-03-18T08:33:47.911Z,3.50
2019-03-18T08:34:47.940Z,3.20
2019-03-18T08:35:47.906Z,3.50
2019-03-18T08:36:47.877Z,3.40
2019-03-18T08:37:47.867Z,3.40
2019-03-18T08:38:47.872Z,3.00
2019-03-18T08:39:47.853Z,3.40
2019-03-18T08:40:47.854Z,3.50
2019-03-18T08:41:47.824Z,3.10
2019-03-18T08:42:47.812Z,3.30
2019-03-18T08:43:47.798Z,3.40
2019-03-18T08:44:47.805Z,3.20
2019-03-18T08:45:47.820Z,3.40
2019-03-18T08:46:47.778Z,3.30
2019-03-18T08:47:47.763Z,3.10
2019-03-18T08:48:55.834Z,3.00
2019-03-18T08:49:48.770Z,3.50
2019-03-18T08:50:47.723Z,3.10
2019-03-18T08:51:47.722Z,3.10
2019-03-18T08:52:47.717Z,2.90
2019-03-18T08:53:47.691Z,3.20
2019-03-18T08:54:47.713Z,3.40
2019-03-18T08:55:47.688Z,3.40
2019-03-18T08:56:47.660Z,3.20
2019-03-18T08:57:47.657Z,3.00
2019-03-18T08:58:47.630Z,3.10
2019-03-18T08:59:47.618Z,3.30
2019-03-18T09:00:47.651Z,3.00
2019-03-18T09:01:47.612Z,3.60
2019-03-18T09:02:47.594Z,3.20
2019-03-18T09:03:48.702Z,2.90
2019-03-18T09:04:47.564Z,3.30
2019-03-18T09:05:47.581Z,3.10
2019-03-18T09:06:47.540Z,3.20
2019-03-18T09:07:47.531Z,2.80
2019-03-18T09:08:47.529Z,2.90
2019-03-18T09:09:47.526Z,3.00
2019-03-18T09:10:47.536Z,3.20
2019-03-18T09:11:47.488Z,2.80
2019-03-18T09:12:47.489Z,3.20
2019-03-18T09:13:47.463Z,3.30
2019-03-18T09:14:47.467Z,3.20
2019-03-18T09:15:47.470Z,3.20
2019-03-18T09:16:47.435Z,2.80
2019-03-18T09:17:47.416Z,2.80
2019-03-18T09:18:47.439Z,2.90
2019-03-18T09:19:47.407Z,3.20
2019-03-18T09:20:47.406Z,2.70
2019-03-18T09:21:47.369Z,3.10
2019-03-18T09:22:47.368Z,2.90
2019-03-18T09:23:47.357Z,3.30
2019-03-18T09:24:47.344Z,3.30
2019-03-18T09:25:47.346Z,2.90
2019-03-18T09:26:47.345Z,3.30
2019-03-18T09:27:47.300Z,2.90
2019-03-18T09:28:47.302Z,2.70
2019-03-18T09:29:47.327Z,3.00
2019-03-18T09:30:47.296Z,3.60
2019-03-18T09:31:47.279Z,3.10
2019-03-18T09:32:47.260Z,2.90
2019-03-18T09:33:47.261Z,3.10
2019-03-18T09:34:47.223Z,2.90
2019-03-18T09:35:47.256Z,2.80
2019-03-18T09:36:47.248Z,3.10
2019-03-18T09:37:47.222Z,2.70
2019-03-18T09:38:47.180Z,2.70
2019-03-18T09:39:47.176Z,2.90
2019-03-18T09:40:47.167Z,2.60
2019-03-18T09:41:47.173Z,2.80
2019-03-18T09:42:47.142Z,3.00
2019-03-18T09:43:47.156Z,2.80
2019-03-18T09:44:47.123Z,3.30
2019-03-18T09:45:47.126Z,2.60
2019-03-18T09:46:47.111Z,2.50
2019-03-18T09:47:47.080Z,3.10
2019-03-18T09:48:47.084Z,2.60
2019-03-18T09:49:47.056Z,2.70
2019-03-18T09:50:47.088Z,2.80
2019-03-18T09:51:47.035Z,2.50
2019-03-18T09:52:47.027Z,2.60
2019-03-18T09:53:47.067Z,3.20
2019-03-18T09:54:47.016Z,2.90
2019-03-18T09:55:46.987Z,2.90
2019-03-18T09:56:47.002Z,2.50
2019-03-18T09:57:46.974Z,2.80
2019-03-18T09:58:46.954Z,2.60
2019-03-18T09:59:46.963Z,2.60
2019-03-18T10:00:46.934Z,2.90
2019-03-18T10:01:46.948Z,2.80
2019-03-18T10:02:46.919Z,2.60
2019-03-18T10:03:46.980Z,2.60
2019-03-18T10:04:46.900Z,2.70
2019-03-18T10:05:46.891Z,2.80
2019-03-18T10:06:48.378Z,2.40
2019-03-18T10:07:46.868Z,2.90
2019-03-18T10:08:46.843Z,2.70
2019-03-18T10:09:46.839Z,2.50
2019-03-18T10:10:46.829Z,2.70
2019-03-18T10:11:46.865Z,2.90
2019-03-18T10:12:46.806Z,2.80
2019-03-18T10:13:46.794Z,3.10
2019-03-18T10:14:46.793Z,2.80
2019-03-18T10:15:46.774Z,3.20
2019-03-18T10:16:46.770Z,2.80
2019-03-18T10:17:46.746Z,2.50
2019-03-18T10:18:46.728Z,2.90
2019-03-18T10:19:46.719Z,3.10
2019-03-18T10:20:46.720Z,3.10
2019-03-18T10:21:46.725Z,3.10
2019-03-18T10:22:46.705Z,3.20
2019-03-18T10:23:46.673Z,2.90
2019-03-18T10:24:46.660Z,3.00
2019-03-18T10:25:46.664Z,2.90
2019-03-18T10:26:46.678Z,2.90
2019-03-18T10:27:46.640Z,2.80
2019-03-18T10:28:46.645Z,2.90
2019-03-18T10:29:46.604Z,2.60
2019-03-18T10:30:46.590Z,2.50
2019-03-18T10:31:46.674Z,2.90
2019-03-18T10:32:46.570Z,2.80
2019-03-18T10:33:46.569Z,2.10
2019-03-18T10:34:46.552Z,2.40
2019-03-18T10:35:46.541Z,2.70
2019-03-18T10:36:46.596Z,2.50
2019-03-18T10:37:46.527Z,2.70
2019-03-18T10:38:46.510Z,2.60
2019-03-18T10:39:46.522Z,3.40
2019-03-18T10:40:46.491Z,2.60
2019-03-18T10:41:46.491Z,3.00
2019-03-18T10:42:46.459Z,2.60
2019-03-18T10:43:46.449Z,2.80
2019-03-18T10:44:46.447Z,2.70
2019-03-18T10:45:46.424Z,2.60
2019-03-18T10:46:46.444Z,2.40
2019-03-18T10:47:46.411Z,2.60
2019-03-18T10:48:46.505Z,2.50
2019-03-18T10:49:46.737Z,2.80
2019-03-18T10:50:46.402Z,3.30
2019-03-18T10:51:48.251Z,3.70
2019-03-18T10:52:46.346Z,2.80
2019-03-18T10:53:46.336Z,2.60
2019-03-18T10:54:46.428Z,3.00
2019-03-18T10:55:46.330Z,2.90
2019-03-18T10:56:46.330Z,2.80
2019-03-18T10:57:46.289Z,2.90
2019-03-18T10:58:46.278Z,3.20
2019-03-18T10:59:46.265Z,3.40
2019-03-18T11:00:46.264Z,3.00
2019-03-18T11:01:46.270Z,3.20
2019-03-18T11:02:46.272Z,2.90
2019-03-18T11:03:46.248Z,3.00
2019-03-18T11:04:46.215Z,2.90
2019-03-18T11:05:46.205Z,3.20
2019-03-18T11:06:46.223Z,3.00
2019-03-18T11:07:46.293Z,2.70
2019-03-18T11:08:46.173Z,2.80
2019-03-18T11:09:46.160Z,3.00
2019-03-18T11:10:46.158Z,2.90
2019-03-18T11:11:46.156Z,2.70
2019-03-18T11:12:46.136Z,2.60
2019-03-18T11:13:46.115Z,3.20
2019-03-18T11:14:46.097Z,3.00
2019-03-18T11:15:46.085Z,3.10
2019-03-18T11:16:46.095Z,3.00
2019-03-18T11:17:46.091Z,2.70
2019-03-18T11:18:46.097Z,3.20
2019-03-18T11:19:57.472Z,3.00
2019-03-18T11:20:47.040Z,3.10
2019-03-18T11:21:46.030Z,3.20
2019-03-18T11:22:46.038Z,3.50
2019-03-18T11:23:46.040Z,2.90
2019-03-18T11:24:46.012Z,2.80
2019-03-18T11:25:45.993Z,3.10
2019-03-18T11:26:45.973Z,3.00
2019-03-18T11:27:46.005Z,2.80
2019-03-18T11:28:45.954Z,3.10
2019-03-18T11:29:45.954Z,2.70
2019-03-18T11:30:45.942Z,2.80
2019-03-18T11:31:45.912Z,3.00
2019-03-18T11:32:45.916Z,2.60
2019-03-18T11:33:45.893Z,3.10
2019-03-18T11:34:45.872Z,3.10
2019-03-18T11:35:45.878Z,2.90
2019-03-18T11:36:45.854Z,3.40
2019-03-18T11:37:45.871Z,3.50
2019-03-18T11:38:45.830Z,3.20
2019-03-18T11:39:45.814Z,3.70
2019-03-18T11:40:45.812Z,3.60
2019-03-18T11:41:45.809Z,3.70
2019-03-18T11:42:45.800Z,3.10
2019-03-18T11:43:45.769Z,3.40
2019-03-18T11:44:45.760Z,3.60
2019-03-18T11:45:45.750Z,3.20
2019-03-18T11:46:45.741Z,3.70
2019-03-18T11:47:45.747Z,3.30
2019-03-18T11:48:45.720Z,3.30
2019-03-18T11:49:45.699Z,3.50
2019-03-18T11:50:45.697Z,3.20
2019-03-18T11:51:45.689Z,3.40
2019-03-18T11:52:45.692Z,3.70
2019-03-18T11:53:45.657Z,3.20
2019-03-18T11:54:45.647Z,3.60
2019-03-18T11:55:45.637Z,3.90
2019-03-18T11:56:45.626Z,3.30
2019-03-18T11:57:45.627Z,3.30
2019-03-18T11:58:45.602Z,4.00
2019-03-18T11:59:46.858Z,3.00
2019-03-18T12:00:45.577Z,3.50
2019-03-18T12:01:45.570Z,3.20
2019-03-18T12:02:45.570Z,3.50
2019-03-18T12:03:45.545Z,3.60
2019-03-18T12:04:45.532Z,3.70
2019-03-18T12:05:45.526Z,3.00
2019-03-18T12:06:45.531Z,3.10
2019-03-18T12:07:45.556Z,3.30
2019-03-18T12:08:45.498Z,3.10
2019-03-18T12:09:45.484Z,3.20
2019-03-18T12:10:45.484Z,3.10
2019-03-18T12:11:45.457Z,3.10
2019-03-18T12:12:45.481Z,3.50
2019-03-18T12:13:45.435Z,3.40
2019-03-18T12:14:45.429Z,3.30
2019-03-18T12:15:45.422Z,2.90
2019-03-18T12:16:45.399Z,3.30
2019-03-18T12:17:45.434Z,3.00
2019-03-18T12:18:45.378Z,2.60
2019-03-18T12:19:45.373Z,2.90
2019-03-18T12:20:45.356Z,3.00
2019-03-18T12:21:45.353Z,2.90
2019-03-18T12:22:45.346Z,3.10
2019-03-18T12:23:45.322Z,2.80
2019-03-18T12:24:45.303Z,3.00
2019-03-18T12:25:45.301Z,3.50
2019-03-18T12:26:45.307Z,3.20
2019-03-18T12:27:45.296Z,3.10
2019-03-18T12:28:45.265Z,2.60
2019-03-18T12:29:45.254Z,2.80
2019-03-18T12:30:45.260Z,3.00
2019-03-18T12:31:45.230Z,2.90
2019-03-18T12:32:45.249Z,2.80
2019-03-18T12:33:45.222Z,2.90
2019-03-18T12:34:45.199Z,3.40
2019-03-18T12:35:45.185Z,2.60
2019-03-18T12:36:45.175Z,2.70
2019-03-18T12:37:45.199Z,3.00
2019-03-18T12:38:45.160Z,2.90
2019-03-18T12:39:45.142Z,3.50
2019-03-18T12:40:45.128Z,2.90
2019-03-18T12:41:45.117Z,3.20
2019-03-18T12:42:45.116Z,3.30
2019-03-18T12:43:45.110Z,3.50
2019-03-18T12:44:45.080Z,3.20
2019-03-18T12:45:45.072Z,2.30
2019-03-18T12:46:45.061Z,2.20
2019-03-18T12:47:45.053Z,2.20
2019-03-18T12:48:45.052Z,2.30
2019-03-18T12:49:45.030Z,2.40
2019-03-18T12:50:55.945Z,2.20
2019-03-18T12:51:46.008Z,2.80
2019-03-18T12:52:45.072Z,2.50
2019-03-18T12:53:45.013Z,2.60
2019-03-18T12:54:44.970Z,2.20
2019-03-18T12:55:44.959Z,2.40
2019-03-18T12:56:44.940Z,2.20
2019-03-18T12:57:44.931Z,2.70
2019-03-18T12:58:45.029Z,2.60
2019-03-18T12:59:44.913Z,2.60
2019-03-18T13:00:44.907Z,2.70
2019-03-18T13:01:44.885Z,2.70
2019-03-18T13:02:44.876Z,2.50
2019-03-18T13:03:44.886Z,2.40
2019-03-18T13:04:44.859Z,2.80
2019-03-18T13:05:44.852Z,3.00
2019-03-18T13:06:44.852Z,2.70
2019-03-18T13:07:44.823Z,3.10
2019-03-18T13:08:44.831Z,3.40
2019-03-18T13:09:44.800Z,3.30
2019-03-18T13:10:44.784Z,2.90
2019-03-18T13:11:44.782Z,3.60
2019-03-18T13:12:44.760Z,3.00
2019-03-18T13:13:44.769Z,3.10
2019-03-18T13:14:44.744Z,3.20
2019-03-18T13:15:44.744Z,3.10
2019-03-18T13:16:44.729Z,3.60
2019-03-18T13:17:44.708Z,3.50
2019-03-18T13:18:44.718Z,3.70